Time,TemperatureF,DewpointF,PressureIn,WindDirection,WindDirectionDegrees,WindSpeedMPH,WindSpeedGustMPH,Humidity,HourlyPrecipIn,Conditions,Clouds,dailyrainin,SoftwareType,DateUTC
2013-08-25 00:00:00,59.8,56.2,30.25,South,169,3.0,3.0,88,0.00,,,0.00,Wunderground v.1.15,2013-08-25 04:00:00,
2013-08-25 00:05:00,59.8,56.2,30.25,SSE,157,3.0,3.0,88,0.00,,,0.00,Wunderground v.1.15,2013-08-25 04:05:00,
2013-08-25 00:10:00,59.7,56.1,30.25,South,174,3.0,3.0,88,0.00,,,0.00,Wunderground v.1.15,2013-08-25 04:10:00,
2013-08-25 00:15:00,59.7,56.1,30.25,SSE,164,3.0,3.0,88,0.00,,,0.00,Wunderground v.1.15,2013-08-25 04:15:00,
2013-08-25 00:20:00,59.7,56.1,30.25,South,174,3.0,3.0,88,0.00,,,0.00,Wunderground v.1.15,2013-08-25 04:20:00,
2013-08-25 00:30:00,59.6,56.0,30.25,SSE,168,3.0,3.0,88,0.00,,,0.00,Wunderground v.1.15,2013-08-25 04:30:00,
2013-08-25 00:40:00,59.4,55.8,30.25,SSE,161,3.0,3.0,88,0.00,,,0.00,Wunderground v.1.15,2013-08-25 04:40:00,
2013-08-25 00:50:00,59.2,55.6,30.25,South,177,3.0,3.0,88,0.00,,,0.00,Wunderground v.1.15,2013-08-25 04:50:00,
2013-08-25 01:00:00,59.1,55.9,30.25,South,190,3.0,4.0,89,0.00,,,0.00,Wunderground v.1.15,2013-08-25 05:00:00,
2013-08-25 01:10:00,59.0,55.8,30.25,South,170,3.0,3.0,89,0.00,,,0.00,Wunderground v.1.15,2013-08-25 05:10:00,
2013-08-25 01:20:00,59.1,55.5,30.25,SSE,153,3.0,3.0,88,0.00,,,0.00,Wunderground v.1.15,2013-08-25 05:20:00,
2013-08-25 01:30:00,59.0,55.4,30.24,South,176,3.0,4.0,88,0.00,,,0.00,Wunderground v.1.15,2013-08-25 05:30:00,
2013-08-25 01:40:00,58.9,55.7,30.24,South,176,3.0,4.0,89,0.00,,,0.00,Wunderground v.1.15,2013-08-25 05:40:00,
2013-08-25 01:50:00,58.8,55.6,30.24,South,179,3.0,3.0,89,0.00,,,0.00,Wunderground v.1.15,2013-08-25 05:50:00,
2013-08-25 02:00:00,58.7,55.5,30.23,South,177,3.0,3.0,89,0.00,,,0.00,Wunderground v.1.15,2013-08-25 06:00:00,
2013-08-25 02:10:00,58.6,55.4,30.23,South,170,3.0,3.0,89,0.00,,,0.00,Wunderground v.1.15,2013-08-25 06:10:00,
2013-08-25 02:20:00,58.6,55.1,30.23,South,174,3.0,3.0,88,0.00,,,0.00,Wunderground v.1.15,2013-08-25 06:20:00,
2013-08-25 02:30:00,58.7,55.2,30.23,South,180,3.0,3.0,88,0.00,,,0.00,Wunderground v.1.15,2013-08-25 06:30:00,
2013-08-25 02:40:00,59.1,54.9,30.23,SSE,167,3.0,3.0,86,0.00,,,0.00,Wunderground v.1.15,2013-08-25 06:40:00,
2013-08-25 02:50:00,59.4,54.9,30.22,South,176,3.0,3.0,85,0.00,,,0.00,Wunderground v.1.15,2013-08-25 06:50:00,
2013-08-25 03:00:00,59.6,55.1,30.22,South,183,3.0,3.0,85,0.00,,,0.00,Wunderground v.1.15,2013-08-25 07:00:00,
2013-08-25 03:10:00,59.5,55.0,30.22,South,179,3.0,3.0,85,0.00,,,0.00,Wunderground v.1.15,2013-08-25 07:10:00,
2013-08-25 03:20:00,59.4,55.2,30.22,South,181,3.0,3.0,86,0.00,,,0.00,Wunderground v.1.15,2013-08-25 07:20:00,
2013-08-25 03:30:00,59.2,55.0,30.22,South,187,3.0,3.0,86,0.00,,,0.00,Wunderground v.1.15,2013-08-25 07:30:00,
2013-08-25 03:40:00,59.1,54.9,30.22,SSW,193,3.0,4.0,86,0.00,,,0.00,Wunderground v.1.15,2013-08-25 07:40:00,
2013-08-25 03:50:00,59.3,54.5,30.22,SW,228,3.0,3.0,84,0.00,,,0.00,Wunderground v.1.15,2013-08-25 07:50:00,
2013-08-25 04:00:00,60.2,54.3,30.22,South,187,3.0,3.0,81,0.00,,,0.00,Wunderground v.1.15,2013-08-25 08:00:00,
2013-08-25 04:10:00,60.8,53.2,30.22,SW,223,3.0,3.0,76,0.00,,,0.00,Wunderground v.1.15,2013-08-25 08:10:00,
2013-08-25 04:20:00,61.5,53.9,30.23,South,187,2.0,3.0,76,0.00,,,0.00,Wunderground v.1.15,2013-08-25 08:20:00,
2013-08-25 04:30:00,62.0,54.3,30.23,SSW,195,3.0,4.0,76,0.00,,,0.00,Wunderground v.1.15,2013-08-25 08:30:00,
2013-08-25 04:40:00,62.2,54.9,30.23,SSW,202,2.0,2.0,77,0.00,,,0.00,Wunderground v.1.15,2013-08-25 08:40:00,
2013-08-25 04:50:00,62.2,55.3,30.23,SSW,204,2.0,2.0,78,0.00,,,0.00,Wunderground v.1.15,2013-08-25 08:50:00,
2013-08-25 05:00:00,62.1,55.9,30.24,SSW,197,2.0,2.0,80,0.00,,,0.00,Wunderground v.1.15,2013-08-25 09:00:00,
2013-08-25 05:10:00,61.8,55.6,30.24,South,185,2.0,2.0,80,0.00,,,0.00,Wunderground v.1.15,2013-08-25 09:10:00,
2013-08-25 05:20:00,61.4,56.2,30.24,SW,214,3.0,3.0,83,0.00,,,0.00,Wunderground v.1.15,2013-08-25 09:20:00,
2013-08-25 05:30:00,61.7,57.1,30.25,South,169,2.0,3.0,85,0.00,,,0.00,Wunderground v.1.15,2013-08-25 09:30:00,
2013-08-25 05:40:00,60.8,55.6,30.25,South,183,2.0,2.0,83,0.00,,,0.00,Wunderground v.1.15,2013-08-25 09:40:00,
2013-08-25 05:50:00,60.3,56.1,30.25,SSW,210,2.0,3.0,86,0.00,,,0.00,Wunderground v.1.15,2013-08-25 09:50:00,
2013-08-25 06:00:00,60.7,57.1,30.26,West,264,2.0,2.0,88,0.00,,,0.00,Wunderground v.1.15,2013-08-25 10:00:00,
2013-08-25 06:10:00,61.2,57.3,30.26,South,190,2.0,2.0,87,0.00,,,0.00,Wunderground v.1.15,2013-08-25 10:10:00,
2013-08-25 06:20:00,60.3,55.8,30.26,SSE,156,2.0,2.0,85,0.00,,,0.00,Wunderground v.1.15,2013-08-25 10:20:00,
2013-08-25 06:30:00,59.0,54.8,30.26,South,179,2.0,2.0,86,0.00,,,0.00,Wunderground v.1.15,2013-08-25 10:30:00,
2013-08-25 06:40:00,59.0,56.1,30.26,SW,228,2.0,2.0,90,0.00,,,0.00,Wunderground v.1.15,2013-08-25 10:40:00,
2013-08-25 06:50:00,60.0,57.4,30.27,SSW,196,2.0,2.0,91,0.00,,,0.00,Wunderground v.1.15,2013-08-25 10:50:00,
2013-08-25 07:00:00,59.8,56.9,30.27,SSE,166,2.0,2.0,90,0.00,,,0.00,Wunderground v.1.15,2013-08-25 11:00:00,
2013-08-25 07:10:00,59.5,56.6,30.27,SSE,153,1.0,2.0,90,0.00,,,0.00,Wunderground v.1.15,2013-08-25 11:10:00,
2013-08-25 07:20:00,59.6,57.0,30.28,South,172,1.0,2.0,91,0.00,,,0.00,Wunderground v.1.15,2013-08-25 11:20:00,
2013-08-25 07:30:00,60.1,57.5,30.28,NNE,18,1.0,5.0,91,0.00,,,0.00,Wunderground v.1.15,2013-08-25 11:30:00,
2013-08-25 07:40:00,61.3,59.3,30.28,SSE,156,1.0,1.0,93,0.00,,,0.00,Wunderground v.1.15,2013-08-25 11:40:00,
2013-08-25 07:50:00,61.8,59.5,30.28,NW,306,1.0,2.0,92,0.00,,,0.00,Wunderground v.1.15,2013-08-25 11:50:00,
2013-08-25 08:00:00,63.7,61.9,30.28,NNW,336,2.0,2.0,94,0.00,,,0.00,Wunderground v.1.15,2013-08-25 12:00:00,
2013-08-25 08:10:00,65.2,63.1,30.28,North,350,2.0,2.0,93,0.00,,,0.00,Wunderground v.1.15,2013-08-25 12:10:00,
2013-08-25 08:20:00,65.6,62.9,30.28,NNW,340,2.0,3.0,91,0.00,,,0.00,Wunderground v.1.15,2013-08-25 12:20:00,
2013-08-25 08:30:00,66.3,62.6,30.28,North,356,2.0,2.0,88,0.00,,,0.00,Wunderground v.1.15,2013-08-25 12:30:00,
2013-08-25 08:40:00,66.9,62.9,30.28,NW,322,2.0,2.0,87,0.00,,,0.00,Wunderground v.1.15,2013-08-25 12:40:00,
2013-08-25 08:50:00,67.3,63.0,30.28,NNW,327,2.0,3.0,86,0.00,,,0.00,Wunderground v.1.15,2013-08-25 12:50:00,
2013-08-25 09:00:00,67.6,63.3,30.28,North,11,2.0,2.0,86,0.00,,,0.00,Wunderground v.1.15,2013-08-25 13:00:00,
2013-08-25 09:10:00,67.9,63.6,30.28,NNW,347,3.0,5.0,86,0.00,,,0.00,Wunderground v.1.15,2013-08-25 13:10:00,
2013-08-25 09:20:00,68.1,63.8,30.28,NNE,15,2.0,2.0,86,0.00,,,0.00,Wunderground v.1.15,2013-08-25 13:20:00,
2013-08-25 09:30:00,68.3,63.9,30.28,NNW,345,3.0,3.0,86,0.00,,,0.00,Wunderground v.1.15,2013-08-25 13:30:00,
2013-08-25 09:40:00,68.5,63.8,30.28,NNW,335,3.0,3.0,85,0.00,,,0.00,Wunderground v.1.15,2013-08-25 13:40:00,
2013-08-25 09:50:00,68.7,64.0,30.28,NW,308,3.0,3.0,85,0.00,,,0.00,Wunderground v.1.15,2013-08-25 13:50:00,
2013-08-25 10:00:00,68.7,64.0,30.28,NNW,340,3.0,3.0,85,0.00,,,0.00,Wunderground v.1.15,2013-08-25 14:00:00,
2013-08-25 10:10:00,68.7,64.0,30.28,NW,308,3.0,4.0,85,0.00,,,0.00,Wunderground v.1.15,2013-08-25 14:10:00,
2013-08-25 10:20:00,69.0,64.0,30.29,North,7,3.0,3.0,84,0.00,,,0.00,Wunderground v.1.15,2013-08-25 14:20:00,
2013-08-25 10:30:00,69.2,64.2,30.29,NNE,16,3.0,3.0,84,0.00,,,0.00,Wunderground v.1.15,2013-08-25 14:30:00,
2013-08-25 10:40:00,69.3,63.9,30.29,North,5,3.0,4.0,83,0.00,,,0.00,Wunderground v.1.15,2013-08-25 14:40:00,
2013-08-25 10:50:00,69.5,64.1,30.28,North,351,3.0,3.0,83,0.00,,,0.00,Wunderground v.1.15,2013-08-25 14:50:00,
2013-08-25 11:00:00,69.6,64.2,30.28,NNW,345,2.0,2.0,83,0.00,,,0.00,Wunderground v.1.15,2013-08-25 15:00:00,
2013-08-25 11:10:00,69.9,64.2,30.28,North,7,3.0,3.0,82,0.00,,,0.00,Wunderground v.1.15,2013-08-25 15:10:00,
2013-08-25 11:20:00,70.1,63.6,30.28,WSW,242,2.0,3.0,80,0.00,,,0.00,Wunderground v.1.15,2013-08-25 15:20:00,
2013-08-25 11:30:00,70.2,63.0,30.27,NNE,28,2.0,2.0,78,0.00,,,0.00,Wunderground v.1.15,2013-08-25 15:30:00,
2013-08-25 11:40:00,70.6,63.4,30.27,NW,306,3.0,5.0,78,0.00,,,0.00,Wunderground v.1.15,2013-08-25 15:40:00,
2013-08-25 11:50:00,70.9,63.3,30.27,NNW,329,3.0,3.0,77,0.00,,,0.00,Wunderground v.1.15,2013-08-25 15:50:00,
2013-08-25 12:00:00,71.4,63.8,30.27,NNE,23,2.0,3.0,77,0.00,,,0.00,Wunderground v.1.15,2013-08-25 16:00:00,
2013-08-25 12:10:00,71.5,63.5,30.27,North,352,2.0,3.0,76,0.00,,,0.00,Wunderground v.1.15,2013-08-25 16:10:00,
2013-08-25 12:20:00,71.7,63.0,30.26,North,2,2.0,2.0,74,0.00,,,0.00,Wunderground v.1.15,2013-08-25 16:20:00,
2013-08-25 12:30:00,71.9,63.5,30.25,NW,322,4.0,4.0,75,0.00,,,0.00,Wunderground v.1.15,2013-08-25 16:30:00,
2013-08-25 12:40:00,72.2,63.8,30.25,NNE,33,3.0,3.0,75,0.00,,,0.00,Wunderground v.1.15,2013-08-25 16:40:00,
2013-08-25 12:50:00,72.5,64.1,30.25,North,349,4.0,4.0,75,0.00,,,0.00,Wunderground v.1.15,2013-08-25 16:50:00,
2013-08-25 13:00:00,72.9,64.5,30.25,North,10,4.0,4.0,75,0.00,,,0.00,Wunderground v.1.15,2013-08-25 17:00:00,
2013-08-25 13:10:00,73.0,64.6,30.25,WNW,299,3.0,3.0,75,0.00,,,0.00,Wunderground v.1.15,2013-08-25 17:10:00,
2013-08-25 13:20:00,73.4,64.2,30.25,NNW,331,3.0,4.0,73,0.00,,,0.00,Wunderground v.1.15,2013-08-25 17:20:00,
2013-08-25 13:30:00,73.7,64.5,30.25,NW,323,3.0,3.0,73,0.00,,,0.00,Wunderground v.1.15,2013-08-25 17:30:00,
2013-08-25 13:40:00,73.5,63.9,30.25,NNW,329,2.0,3.0,72,0.00,,,0.00,Wunderground v.1.15,2013-08-25 17:40:00,
2013-08-25 13:50:00,73.2,62.0,30.24,North,357,2.0,2.0,68,0.00,,,0.00,Wunderground v.1.15,2013-08-25 17:50:00,
2013-08-25 14:00:00,73.2,60.7,30.23,NNW,329,2.0,2.0,65,0.00,,,0.00,Wunderground v.1.15,2013-08-25 18:00:00,
2013-08-25 14:10:00,73.5,59.7,30.23,North,353,1.0,2.0,62,0.00,,,0.00,Wunderground v.1.15,2013-08-25 18:10:00,
2013-08-25 14:20:00,73.5,61.0,30.23,ENE,68,2.0,2.0,65,0.00,,,0.00,Wunderground v.1.15,2013-08-25 18:20:00,
2013-08-25 14:30:00,73.9,61.0,30.23,NNE,27,2.0,2.0,64,0.00,,,0.00,Wunderground v.1.15,2013-08-25 18:30:00,
2013-08-25 14:40:00,74.1,61.6,30.23,NNE,21,2.0,2.0,65,0.00,,,0.00,Wunderground v.1.15,2013-08-25 18:40:00,
2013-08-25 14:50:00,74.2,59.4,30.22,NNW,345,3.0,3.0,60,0.00,,,0.00,Wunderground v.1.15,2013-08-25 18:50:00,
2013-08-25 15:00:00,74.6,59.3,30.22,NNE,15,2.0,2.0,59,0.00,,,0.00,Wunderground v.1.15,2013-08-25 19:00:00,
2013-08-25 15:10:00,75.2,58.9,30.22,NNW,329,3.0,3.0,57,0.00,,,0.00,Wunderground v.1.15,2013-08-25 19:10:00,
2013-08-25 15:20:00,75.5,58.7,30.22,NNW,337,2.0,3.0,56,0.00,,,0.00,Wunderground v.1.15,2013-08-25 19:20:00,
2013-08-25 15:30:00,75.8,56.9,30.23,North,349,2.0,2.0,52,0.00,,,0.00,Wunderground v.1.15,2013-08-25 19:30:00,
2013-08-25 15:40:00,76.2,56.2,30.23,NNW,332,2.0,2.0,50,0.00,,,0.00,Wunderground v.1.15,2013-08-25 19:40:00,
2013-08-25 15:50:00,76.6,56.0,30.22,SSW,201,2.0,2.0,49,0.00,,,0.00,Wunderground v.1.15,2013-08-25 19:50:00,
2013-08-25 16:00:00,77.0,56.9,30.22,NNW,341,2.0,3.0,50,0.00,,,0.00,Wunderground v.1.15,2013-08-25 20:00:00,
2013-08-25 16:10:00,76.9,57.4,30.22,North,4,2.0,2.0,51,0.00,,,0.00,Wunderground v.1.15,2013-08-25 20:10:00,
2013-08-25 16:20:00,77.7,58.1,30.21,North,2,2.0,2.0,51,0.00,,,0.00,Wunderground v.1.15,2013-08-25 20:20:00,
2013-08-25 16:30:00,78.7,57.4,30.20,NNW,347,2.0,2.0,48,0.00,,,0.00,Wunderground v.1.15,2013-08-25 20:30:00,
2013-08-25 16:40:00,79.2,57.2,30.20,WNW,289,2.0,2.0,47,0.00,,,0.00,Wunderground v.1.15,2013-08-25 20:40:00,
2013-08-25 16:50:00,79.9,57.3,30.20,West,260,2.0,2.0,46,0.00,,,0.00,Wunderground v.1.15,2013-08-25 20:50:00,
2013-08-25 17:00:00,79.7,58.8,30.19,South,182,4.0,4.0,49,0.00,,,0.00,Wunderground v.1.15,2013-08-25 21:00:00,
2013-08-25 17:10:00,79.3,57.9,30.19,SSW,192,7.0,7.0,48,0.00,,,0.00,Wunderground v.1.15,2013-08-25 21:10:00,
2013-08-25 17:20:00,78.6,56.7,30.19,SSW,197,7.0,10.0,47,0.00,,,0.00,Wunderground v.1.15,2013-08-25 21:20:00,
2013-08-25 17:30:00,78.2,56.3,30.19,SSE,166,6.0,6.0,47,0.00,,,0.00,Wunderground v.1.15,2013-08-25 21:30:00,
2013-08-25 17:40:00,77.4,56.2,30.18,South,181,6.0,6.0,48,0.00,,,0.00,Wunderground v.1.15,2013-08-25 21:40:00,
2013-08-25 17:50:00,76.5,56.5,30.18,SSE,163,5.0,5.0,50,0.00,,,0.00,Wunderground v.1.15,2013-08-25 21:50:00,
2013-08-25 18:00:00,75.6,56.2,30.17,South,176,7.0,8.0,51,0.00,,,0.00,Wunderground v.1.15,2013-08-25 22:00:00,
2013-08-25 18:10:00,74.9,56.6,30.17,SSW,201,7.0,7.0,53,0.00,,,0.00,Wunderground v.1.15,2013-08-25 22:10:00,
2013-08-25 18:20:00,74.5,56.8,30.17,SW,231,7.0,7.0,54,0.00,,,0.00,Wunderground v.1.15,2013-08-25 22:20:00,
2013-08-25 18:30:00,73.9,56.2,30.17,South,187,7.0,7.0,54,0.00,,,0.00,Wunderground v.1.15,2013-08-25 22:30:00,
2013-08-25 18:40:00,73.4,55.7,30.16,South,172,5.0,6.0,54,0.00,,,0.00,Wunderground v.1.15,2013-08-25 22:40:00,
2013-08-25 18:50:00,72.9,55.3,30.16,South,183,4.0,4.0,54,0.00,,,0.00,Wunderground v.1.15,2013-08-25 22:50:00,
2013-08-25 19:00:00,72.3,55.7,30.15,SSW,200,5.0,5.0,56,0.00,,,0.00,Wunderground v.1.15,2013-08-25 23:00:00,
2013-08-25 19:10:00,71.8,56.2,30.15,SE,131,4.0,4.0,58,0.00,,,0.00,Wunderground v.1.15,2013-08-25 23:10:00,
2013-08-25 19:20:00,71.1,57.0,30.15,SSW,201,4.0,5.0,61,0.00,,,0.00,Wunderground v.1.15,2013-08-25 23:20:00,
2013-08-25 19:30:00,70.4,57.2,30.15,SW,220,5.0,5.0,63,0.00,,,0.00,Wunderground v.1.15,2013-08-25 23:30:00,
2013-08-25 19:40:00,69.8,57.1,30.15,SSE,152,4.0,6.0,64,0.00,,,0.00,Wunderground v.1.15,2013-08-25 23:40:00,
2013-08-25 19:50:00,69.2,57.4,30.15,South,174,4.0,7.0,66,0.00,,,0.00,Wunderground v.1.15,2013-08-25 23:50:00,
2013-08-25 20:00:00,68.7,57.7,30.14,SSW,201,5.0,5.0,68,0.00,,,0.00,Wunderground v.1.15,2013-08-26 00:00:00,
2013-08-25 20:10:00,68.3,58.5,30.14,South,181,5.0,7.0,71,0.00,,,0.00,Wunderground v.1.15,2013-08-26 00:10:00,
2013-08-25 20:20:00,68.0,59.4,30.15,SSE,149,5.0,5.0,74,0.00,,,0.00,Wunderground v.1.15,2013-08-26 00:20:00,
2013-08-25 20:30:00,67.7,60.2,30.15,SE,145,5.0,6.0,77,0.00,,,0.00,Wunderground v.1.15,2013-08-26 00:30:00,
2013-08-25 20:40:00,67.5,60.8,30.15,SE,135,5.0,5.0,79,0.00,,,0.00,Wunderground v.1.15,2013-08-26 00:40:00,
2013-08-25 20:50:00,67.4,61.0,30.15,South,181,5.0,5.0,80,0.00,,,0.00,Wunderground v.1.15,2013-08-26 00:50:00,
2013-08-25 21:00:00,67.2,61.2,30.15,SSW,197,6.0,6.0,81,0.00,,,0.00,Wunderground v.1.15,2013-08-26 01:00:00,
2013-08-25 21:10:00,67.0,61.0,30.15,SSE,162,5.0,5.0,81,0.00,,,0.00,Wunderground v.1.15,2013-08-26 01:10:00,
2013-08-25 21:20:00,66.8,60.8,30.15,East,96,5.0,5.0,81,0.00,,,0.00,Wunderground v.1.15,2013-08-26 01:20:00,
2013-08-25 21:30:00,66.6,60.6,30.15,South,187,5.0,5.0,81,0.00,,,0.00,Wunderground v.1.15,2013-08-26 01:30:00,
2013-08-25 21:40:00,66.5,60.5,30.15,South,172,5.0,5.0,81,0.00,,,0.00,Wunderground v.1.15,2013-08-26 01:40:00,
2013-08-25 21:50:00,66.4,60.4,30.15,SSE,158,5.0,5.0,81,0.00,,,0.00,Wunderground v.1.15,2013-08-26 01:50:00,
2013-08-25 22:00:00,66.3,60.3,30.15,SW,223,5.0,5.0,81,0.00,,,0.00,Wunderground v.1.15,2013-08-26 02:00:00,
2013-08-25 22:10:00,66.1,60.1,30.15,South,176,5.0,5.0,81,0.00,,,0.00,Wunderground v.1.15,2013-08-26 02:10:00,
2013-08-25 22:20:00,65.9,59.9,30.15,South,172,5.0,6.0,81,0.00,,,0.00,Wunderground v.1.15,2013-08-26 02:20:00,
2013-08-25 22:30:00,65.8,59.8,30.15,South,188,5.0,6.0,81,0.00,,,0.00,Wunderground v.1.15,2013-08-26 02:30:00,
2013-08-25 22:40:00,65.9,59.6,30.15,SSW,193,7.0,7.0,80,0.00,,,0.00,Wunderground v.1.15,2013-08-26 02:40:00,
2013-08-25 22:50:00,65.9,59.2,30.14,South,186,7.0,7.0,79,0.00,,,0.00,Wunderground v.1.15,2013-08-26 02:50:00,
2013-08-25 23:00:00,65.9,58.8,30.14,SSW,199,6.0,7.0,78,0.00,,,0.00,Wunderground v.1.15,2013-08-26 03:00:00,
2013-08-25 23:10:00,65.8,58.7,30.14,South,178,6.0,6.0,78,0.00,,,0.00,Wunderground v.1.15,2013-08-26 03:10:00,
2013-08-25 23:20:00,65.9,58.5,30.14,South,176,8.0,8.0,77,0.00,,,0.00,Wunderground v.1.15,2013-08-26 03:20:00,
2013-08-25 23:30:00,66.0,57.8,30.14,South,183,9.0,9.0,75,0.00,,,0.00,Wunderground v.1.15,2013-08-26 03:30:00,
2013-08-25 23:40:00,66.0,57.8,30.14,South,174,7.0,7.0,75,0.00,,,0.00,Wunderground v.1.15,2013-08-26 03:40:00,
2013-08-25 23:50:00,65.7,57.9,30.14,South,181,6.0,6.0,76,0.00,,,0.00,Wunderground v.1.15,2013-08-26 03:50:00,